createdAt,value
2022-09-25T00:01:50.911Z,93.35
2022-09-25T00:04:17.377Z,93.44
2022-09-25T00:06:43.813Z,93.42
2022-09-25T00:09:10.866Z,93.31
2022-09-25T00:11:38.514Z,93.16
2022-09-25T00:14:04.964Z,93.43
2022-09-25T00:16:32.865Z,93.40
2022-09-25T00:19:18.728Z,93.48
2022-09-25T00:21:45.511Z,93.34
2022-09-25T00:24:13.523Z,93.38
2022-09-25T00:26:42.742Z,93.64
2022-09-25T00:29:15.186Z,94.07
2022-09-25T00:31:41.761Z,93.36
2022-09-25T00:34:08.405Z,93.20
2022-09-25T00:36:35.044Z,93.09
2022-09-25T00:39:01.600Z,93.05
2022-09-25T00:41:31.894Z,93.17
2022-09-25T00:43:59.155Z,94.10
2022-09-25T00:46:42.731Z,94.39
2022-09-25T00:49:24.388Z,94.56
2022-09-25T00:51:55.348Z,93.15
2022-09-25T00:54:28.019Z,93.39
2022-09-25T00:56:56.856Z,93.01
2022-09-25T00:59:29.671Z,93.45
2022-09-25T01:01:56.813Z,93.11
2022-09-25T01:04:24.394Z,93.01
2022-09-25T01:06:50.906Z,93.25
2022-09-25T01:09:18.332Z,92.94
2022-09-25T01:11:45.219Z,92.98
2022-09-25T01:14:16.267Z,93.08
2022-09-25T01:16:59.367Z,94.40
2022-09-25T01:19:44.905Z,94.95
2022-09-25T01:22:17.164Z,93.13
2022-09-25T01:25:10.040Z,94.98
2022-09-25T01:27:51.379Z,94.02
2022-09-25T01:30:19.692Z,93.30
2022-09-25T01:32:58.462Z,94.41
2022-09-25T01:35:48.912Z,95.25
2022-09-25T01:38:42.807Z,94.86
2022-09-25T01:41:21.884Z,94.49
2022-09-25T01:43:55.121Z,94.00
2022-09-25T01:46:26.930Z,93.91
2022-09-25T01:49:02.418Z,94.57
2022-09-25T01:51:37.825Z,94.87
2022-09-25T01:54:10.925Z,94.79
2022-09-25T01:56:43.983Z,94.59
2022-09-25T01:59:20.368Z,95.30
2022-09-25T02:01:47.855Z,94.38
2022-09-25T02:04:25.081Z,95.34
2022-09-25T02:06:54.707Z,94.80
2022-09-25T02:09:32.035Z,95.24
2022-09-25T02:12:07.172Z,95.23
2022-09-25T02:14:56.553Z,96.48
2022-09-25T02:18:18.519Z,96.49
2022-09-25T02:20:53.550Z,95.07
2022-09-25T02:23:23.681Z,94.96
2022-09-25T02:26:01.141Z,95.70
2022-09-25T02:28:27.780Z,94.88
2022-09-25T02:30:57.719Z,94.97
2022-09-25T02:33:24.476Z,94.91
2022-09-25T02:35:50.862Z,94.98
2022-09-25T02:38:17.386Z,94.94
2022-09-25T02:40:52.137Z,95.47
2022-09-25T02:43:44.979Z,96.93
2022-09-25T02:46:36.862Z,96.79
2022-09-25T02:49:16.007Z,95.75
2022-09-25T02:51:57.308Z,96.23
2022-09-25T02:54:45.185Z,96.69
2022-09-25T02:57:27.462Z,96.12
2022-09-25T02:59:59.356Z,95.45
2022-09-25T03:02:28.997Z,95.55
2022-09-25T03:04:57.354Z,95.27
2022-09-25T03:07:23.896Z,95.26
2022-09-25T03:09:53.985Z,95.47
2022-09-25T03:12:20.385Z,95.40
2022-09-25T03:14:46.833Z,95.56
2022-09-25T03:17:15.107Z,95.46
2022-09-25T03:19:41.489Z,95.58
2022-09-25T03:22:07.869Z,95.32
2022-09-25T03:24:34.409Z,95.35
2022-09-25T03:27:00.791Z,95.57
2022-09-25T03:29:27.272Z,95.37
2022-09-25T03:31:53.616Z,95.40
2022-09-25T03:34:19.970Z,95.56
2022-09-25T03:36:49.282Z,95.27
2022-09-25T03:39:17.785Z,95.50
2022-09-25T03:41:44.574Z,95.35
2022-09-25T03:44:11.806Z,95.46
2022-09-25T03:46:38.436Z,95.29
2022-09-25T03:49:05.573Z,95.46
2022-09-25T03:51:32.539Z,95.48
2022-09-25T03:53:58.957Z,95.62
2022-09-25T03:56:29.583Z,95.76
2022-09-25T03:58:56.788Z,95.53
2022-09-25T04:01:24.746Z,95.41
2022-09-25T04:03:51.492Z,95.39
2022-09-25T04:06:22.522Z,95.60
2022-09-25T04:08:49.061Z,95.24
2022-09-25T04:11:20.322Z,95.85
2022-09-25T04:13:46.955Z,95.42
2022-09-25T04:16:15.995Z,95.52
2022-09-25T04:18:44.087Z,95.39
2022-09-25T04:21:12.929Z,95.38
2022-09-25T04:23:40.161Z,95.01
2022-09-25T04:26:07.635Z,95.07
2022-09-25T04:28:34.502Z,94.94
2022-09-25T04:31:02.051Z,94.84
2022-09-25T04:33:47.382Z,94.60
2022-09-25T04:36:18.882Z,94.95
2022-09-25T04:38:45.861Z,94.46
2022-09-25T04:41:12.285Z,94.46
2022-09-25T04:43:40.909Z,94.35
2022-09-25T04:46:08.592Z,94.45
2022-09-25T04:48:35.918Z,94.05
2022-09-25T04:51:03.748Z,94.06
2022-09-25T04:53:31.607Z,94.10
2022-09-25T04:56:03.106Z,94.85
2022-09-25T04:58:29.542Z,93.98
2022-09-25T05:00:56.062Z,93.87
2022-09-25T05:03:22.528Z,93.85
2022-09-25T05:05:49.573Z,93.77
2022-09-25T05:08:15.920Z,93.69
2022-09-25T05:10:43.912Z,94.01
2022-09-25T05:13:11.137Z,93.70
2022-09-25T05:15:37.774Z,93.92
2022-09-25T05:18:11.872Z,94.94
2022-09-25T05:20:38.891Z,93.72
2022-09-25T05:23:05.270Z,93.91
2022-09-25T05:25:32.221Z,94.09
2022-09-25T05:28:00.545Z,94.10
2022-09-25T05:30:31.998Z,94.29
2022-09-25T05:32:58.830Z,94.16
2022-09-25T05:35:27.964Z,94.35
2022-09-25T05:37:54.353Z,93.94
2022-09-25T05:40:21.618Z,93.97
2022-09-25T05:42:48.455Z,93.70
2022-09-25T05:45:16.597Z,93.70
2022-09-25T05:47:43.774Z,93.64
2022-09-25T05:50:13.797Z,93.56
2022-09-25T05:52:40.526Z,93.79
2022-09-25T05:55:08.122Z,93.85
2022-09-25T05:57:35.962Z,93.73
2022-09-25T06:00:05.122Z,93.90
2022-09-25T06:02:31.534Z,93.64
2022-09-25T06:04:57.975Z,93.65
2022-09-25T06:07:24.328Z,93.79
2022-09-25T06:09:50.877Z,94.10
2022-09-25T06:12:18.373Z,94.25
2022-09-25T06:14:44.876Z,94.16
2022-09-25T06:17:12.727Z,93.82
2022-09-25T06:19:39.123Z,93.88
2022-09-25T06:22:05.519Z,94.18
2022-09-25T06:24:31.873Z,94.07
2022-09-25T06:26:58.221Z,94.26
2022-09-25T06:29:25.379Z,94.42
2022-09-25T06:31:52.274Z,94.46
2022-09-25T06:34:19.168Z,94.62
2022-09-25T06:36:45.558Z,94.51
2022-09-25T06:39:11.928Z,94.61
2022-09-25T06:41:38.491Z,94.71
2022-09-25T06:44:05.174Z,94.85
2022-09-25T06:46:31.654Z,94.44
2022-09-25T06:48:58.031Z,94.32
2022-09-25T06:51:28.811Z,94.10
2022-09-25T06:53:55.884Z,94.21
2022-09-25T06:56:22.440Z,94.58
2022-09-25T06:58:49.031Z,94.84
2022-09-25T07:01:15.994Z,94.92
2022-09-25T07:03:45.582Z,95.00
2022-09-25T07:06:31.495Z,95.90
2022-09-25T07:08:58.001Z,94.75
2022-09-25T07:11:28.078Z,95.21
2022-09-25T07:13:57.677Z,95.52
2022-09-25T07:16:28.358Z,95.86
2022-09-25T07:19:00.602Z,95.53
2022-09-25T07:21:30.419Z,95.45
2022-09-25T07:23:58.197Z,95.32
2022-09-25T07:26:27.774Z,95.22
2022-09-25T07:28:57.694Z,95.57
2022-09-25T07:31:26.910Z,95.62
2022-09-25T07:33:54.234Z,95.58
2022-09-25T07:36:21.642Z,95.41
2022-09-25T07:38:52.746Z,96.03
2022-09-25T07:41:22.618Z,95.49
2022-09-25T07:46:45.916Z,94.98
2022-09-25T07:49:16.521Z,95.06
2022-09-25T07:51:42.835Z,95.79
2022-09-25T07:54:09.268Z,94.87
2022-09-25T07:56:37.993Z,95.25
2022-09-25T07:59:04.529Z,95.45
2022-09-25T08:01:30.928Z,95.22
2022-09-25T08:03:57.329Z,95.59
2022-09-25T08:06:23.709Z,95.99
2022-09-25T08:08:50.048Z,96.24
2022-09-25T08:11:17.673Z,96.00
2022-09-25T08:13:44.921Z,96.17
2022-09-25T08:16:16.524Z,96.17
2022-09-25T08:18:46.213Z,95.90
2022-09-25T08:21:14.847Z,95.89
2022-09-25T08:23:47.478Z,96.05
2022-09-25T08:26:14.269Z,96.20
2022-09-25T08:28:40.738Z,96.10
2022-09-25T08:31:08.681Z,96.11
2022-09-25T08:33:35.995Z,96.10
2022-09-25T08:36:05.035Z,95.41
2022-09-25T08:38:33.119Z,94.82
2022-09-25T08:41:03.756Z,94.83
2022-09-25T08:43:34.344Z,94.48
2022-09-25T08:46:23.975Z,94.40
2022-09-25T08:49:03.266Z,93.97
2022-09-25T08:51:32.573Z,94.35
2022-09-25T08:54:00.199Z,94.40
2022-09-25T08:56:29.312Z,94.65
2022-09-25T08:59:05.582Z,95.17
2022-09-25T09:01:53.187Z,96.16
2022-09-25T09:04:26.297Z,94.91
2022-09-25T09:07:25.306Z,94.92
2022-09-25T09:09:49.522Z,95.11
2022-09-25T09:12:28.004Z,95.56
2022-09-25T09:15:07.265Z,95.77
2022-09-25T09:17:41.428Z,96.07
2022-09-25T09:20:19.917Z,95.82
2022-09-25T09:22:51.026Z,95.12
2022-09-25T09:25:35.974Z,96.04
2022-09-25T09:28:26.743Z,96.36
2022-09-25T09:31:14.206Z,96.16
2022-09-25T09:34:02.722Z,96.97
2022-09-25T09:36:41.409Z,96.51
2022-09-25T09:39:23.675Z,96.36
2022-09-25T09:42:01.991Z,95.89
2022-09-25T09:44:28.680Z,95.34
2022-09-25T09:47:07.843Z,95.29
2022-09-25T09:50:18.960Z,95.72
2022-09-25T09:52:50.316Z,94.00
2022-09-25T09:55:36.934Z,95.33
2022-09-25T09:58:11.377Z,94.63
2022-09-25T10:00:39.845Z,94.63
2022-09-25T10:03:11.684Z,95.36
2022-09-25T10:05:43.336Z,95.29
2022-09-25T10:08:10.717Z,94.17
2022-09-25T10:10:41.545Z,94.33
2022-09-25T10:13:19.214Z,95.44
2022-09-25T10:15:52.253Z,94.76
2022-09-25T10:18:21.239Z,94.07
2022-09-25T10:21:13.282Z,95.52
2022-09-25T10:23:40.658Z,93.99
2022-09-25T10:26:31.042Z,96.46
2022-09-25T10:29:02.392Z,94.35
2022-09-25T10:31:33.844Z,95.15
2022-09-25T10:34:01.695Z,95.26
2022-09-25T10:36:38.966Z,95.71
2022-09-25T10:39:43.104Z,94.84
2022-09-25T10:42:40.942Z,95.73
2022-09-25T10:45:30.820Z,95.38
2022-09-25T10:48:15.964Z,92.96
2022-09-25T10:50:42.943Z,92.64
2022-09-25T10:53:35.730Z,94.70
2022-09-25T10:56:15.019Z,93.61
2022-09-25T10:58:46.364Z,92.93
2022-09-25T11:01:16.290Z,92.83
2022-09-25T11:04:17.414Z,94.72
2022-09-25T11:06:48.266Z,93.16
2022-09-25T11:09:32.558Z,94.83
2022-09-25T11:12:27.038Z,94.94
2022-09-25T11:14:58.634Z,93.02
2022-09-25T11:17:42.088Z,94.05
2022-09-25T11:20:11.967Z,93.63
2022-09-25T11:22:40.725Z,93.30
2022-09-25T11:25:14.729Z,93.05
2022-09-25T11:27:44.130Z,92.24
2022-09-25T11:30:12.490Z,92.28
2022-09-25T11:32:52.394Z,93.28
2022-09-25T11:35:45.563Z,92.20
2022-09-25T11:38:43.220Z,92.53
2022-09-25T11:41:23.283Z,91.65
2022-09-25T11:44:01.196Z,92.67
2022-09-25T11:46:43.658Z,93.19
2022-09-25T11:49:31.409Z,93.12
2022-09-25T11:52:14.008Z,92.58
2022-09-25T11:54:57.364Z,92.67
2022-09-25T11:57:41.593Z,91.96
2022-09-25T12:00:19.743Z,90.35
2022-09-25T12:03:02.601Z,91.95
2022-09-25T12:05:59.894Z,92.30
2022-09-25T12:09:06.959Z,91.67
2022-09-25T12:11:45.801Z,91.28
2022-09-25T12:14:33.604Z,90.85
2022-09-25T12:17:16.071Z,92.45
2022-09-25T12:19:48.588Z,91.88
2022-09-25T12:22:36.369Z,92.29
2022-09-25T12:25:23.009Z,91.33
2022-09-25T12:28:04.978Z,91.34
2022-09-25T12:30:48.078Z,91.75
2022-09-25T12:33:32.756Z,91.38
2022-09-25T12:36:12.500Z,91.19
2022-09-25T12:38:57.048Z,91.14
2022-09-25T12:41:51.208Z,91.23
2022-09-25T12:44:27.424Z,90.25
2022-09-25T12:47:02.087Z,91.12
2022-09-25T12:49:41.198Z,92.40
2022-09-25T12:52:36.418Z,91.97
2022-09-25T12:55:27.083Z,91.85
2022-09-25T12:58:12.448Z,89.62
2022-09-25T13:00:43.481Z,88.52
2022-09-25T13:03:23.887Z,87.86
2022-09-25T13:06:03.734Z,87.03
2022-09-25T13:08:48.658Z,88.14
2022-09-25T13:11:24.020Z,87.86
2022-09-25T13:13:55.127Z,86.19
2022-09-25T13:16:22.392Z,86.52
2022-09-25T13:19:11.565Z,86.12
2022-09-25T13:21:43.236Z,85.35
2022-09-25T13:24:15.994Z,85.50
2022-09-25T13:26:57.484Z,86.05
2022-09-25T13:29:31.149Z,85.56
2022-09-25T13:32:20.245Z,85.98
2022-09-25T13:34:56.561Z,85.75
2022-09-25T13:37:35.792Z,85.68
2022-09-25T13:40:47.774Z,85.20
2022-09-25T13:43:21.461Z,85.01
2022-09-25T13:45:51.945Z,83.78
2022-09-25T13:48:39.754Z,85.17
2022-09-25T13:51:19.157Z,85.25
2022-09-25T13:54:08.084Z,84.98
2022-09-25T13:56:40.409Z,84.36
2022-09-25T13:59:10.335Z,84.03
2022-09-25T14:01:38.840Z,84.12
2022-09-25T14:04:11.121Z,83.59
2022-09-25T14:06:42.296Z,83.12
2022-09-25T14:09:24.751Z,84.60
2022-09-25T14:12:03.934Z,84.69
2022-09-25T14:14:36.823Z,84.67
2022-09-25T14:17:04.757Z,83.90
2022-09-25T14:19:39.693Z,83.79
2022-09-25T14:22:08.321Z,83.92
2022-09-25T14:24:45.465Z,84.89
2022-09-25T14:27:22.490Z,84.53
2022-09-25T14:29:49.729Z,84.11
2022-09-25T14:32:55.523Z,85.46
2022-09-25T14:36:00.074Z,85.21
2022-09-25T14:39:04.312Z,84.69
2022-09-25T14:41:44.230Z,84.31
2022-09-25T14:44:23.365Z,82.93
2022-09-25T14:46:52.600Z,81.80
2022-09-25T14:49:32.673Z,81.63
2022-09-25T14:52:07.841Z,81.00
2022-09-25T14:54:38.309Z,79.23
2022-09-25T14:57:06.285Z,79.23
2022-09-25T14:59:42.331Z,79.55
2022-09-25T15:02:18.703Z,78.39
2022-09-25T15:04:57.940Z,78.81
2022-09-25T15:07:28.271Z,77.56
2022-09-25T15:10:01.926Z,75.57
2022-09-25T15:12:34.856Z,75.69
2022-09-25T15:15:14.551Z,75.74
2022-09-25T15:17:59.726Z,74.99
2022-09-25T15:20:38.361Z,71.54
2022-09-25T15:23:16.549Z,70.04
2022-09-25T15:25:47.735Z,68.65
2022-09-25T15:28:21.352Z,66.89
2022-09-25T15:30:57.137Z,66.20
2022-09-25T15:33:34.364Z,62.46
2022-09-25T15:36:06.973Z,60.54
2022-09-25T15:38:36.502Z,59.56
2022-09-25T15:41:17.254Z,58.99
2022-09-25T15:43:44.179Z,58.77
2022-09-25T15:46:11.157Z,60.59
2022-09-25T15:48:50.978Z,58.99
2022-09-25T15:51:28.176Z,60.31
2022-09-25T15:53:59.550Z,58.75
2022-09-25T15:56:29.421Z,57.64
2022-09-25T15:59:15.775Z,57.47
2022-09-25T16:02:05.075Z,57.54
2022-09-25T16:04:49.786Z,56.85
2022-09-25T16:07:40.941Z,58.31
2022-09-25T16:10:16.957Z,58.41
2022-09-25T16:12:47.848Z,57.09
2022-09-25T16:15:30.178Z,58.20
2022-09-25T16:18:04.454Z,57.60
2022-09-25T16:20:36.513Z,57.82
2022-09-25T16:23:21.855Z,58.71
2022-09-25T16:25:49.059Z,58.40
2022-09-25T16:28:28.599Z,58.98
2022-09-25T16:31:09.069Z,60.49
2022-09-25T16:33:51.025Z,60.31
2022-09-25T16:36:21.408Z,59.99
2022-09-25T16:39:10.181Z,61.32
2022-09-25T16:41:44.045Z,61.10
2022-09-25T16:44:19.036Z,61.63
2022-09-25T16:47:25.868Z,63.08
2022-09-25T16:50:04.837Z,63.80
2022-09-25T16:52:35.183Z,64.06
2022-09-25T16:55:06.080Z,64.61
2022-09-25T16:57:46.096Z,65.58
2022-09-25T17:00:18.985Z,65.55
2022-09-25T17:02:49.211Z,67.34
2022-09-25T17:05:19.334Z,66.81
2022-09-25T17:07:47.715Z,68.41
2022-09-25T17:10:16.156Z,69.65
2022-09-25T17:12:49.797Z,70.33
2022-09-25T17:15:25.722Z,71.77
2022-09-25T17:17:54.815Z,72.37
2022-09-25T17:20:27.283Z,73.12
2022-09-25T17:22:58.435Z,73.56
2022-09-25T17:26:03.285Z,74.81
2022-09-25T17:28:29.829Z,74.71
2022-09-25T17:30:56.229Z,75.41
2022-09-25T17:33:23.360Z,76.06
2022-09-25T17:36:04.781Z,77.06
2022-09-25T17:38:34.810Z,77.34
2022-09-25T17:41:05.604Z,77.80
2022-09-25T17:43:32.601Z,78.28
2022-09-25T17:46:00.569Z,78.65
2022-09-25T17:48:31.876Z,78.86
2022-09-25T17:51:00.441Z,79.34
2022-09-25T17:53:29.493Z,79.63
2022-09-25T17:55:57.145Z,79.93
2022-09-25T17:58:25.007Z,79.98
2022-09-25T18:00:53.043Z,80.09
2022-09-25T18:03:20.783Z,80.32
2022-09-25T18:05:47.805Z,80.84
2022-09-25T18:08:15.089Z,81.28
2022-09-25T18:10:42.078Z,81.97
2022-09-25T18:13:13.787Z,82.59
2022-09-25T18:16:08.418Z,83.03
2022-09-25T18:18:53.484Z,82.87
2022-09-25T18:21:38.590Z,83.09
2022-09-25T18:24:05.254Z,83.10
2022-09-25T18:26:31.799Z,83.47
2022-09-25T18:28:58.187Z,83.70
2022-09-25T18:31:25.354Z,84.11
2022-09-25T18:33:54.807Z,84.31
2022-09-25T18:36:22.040Z,84.62
2022-09-25T18:38:48.576Z,84.82
2022-09-25T18:41:15.005Z,85.22
2022-09-25T18:43:41.416Z,85.29
2022-09-25T18:46:08.040Z,85.47
2022-09-25T18:48:35.579Z,85.91
2022-09-25T18:51:01.983Z,85.99
2022-09-25T18:53:28.364Z,86.15
2022-09-25T18:55:58.121Z,86.29
2022-09-25T18:58:24.643Z,86.20
2022-09-25T19:00:51.579Z,87.15
2022-09-25T19:03:17.950Z,86.94
2022-09-25T19:05:44.319Z,86.84
2022-09-25T19:08:11.346Z,87.30
2022-09-25T19:10:37.686Z,87.66
2022-09-25T19:13:04.232Z,88.63
2022-09-25T19:15:30.760Z,88.37
2022-09-25T19:17:57.490Z,88.43
2022-09-25T19:20:24.464Z,88.05
2022-09-25T19:22:51.158Z,89.35
2022-09-25T19:25:22.286Z,89.15
2022-09-25T19:27:49.205Z,89.29
2022-09-25T19:30:15.640Z,89.76
2022-09-25T19:32:42.210Z,90.11
2022-09-25T19:35:11.086Z,90.11
2022-09-25T19:37:38.757Z,90.15
2022-09-25T19:40:24.855Z,90.18
2022-09-25T19:42:51.430Z,90.31
2022-09-25T19:45:19.614Z,90.31
2022-09-25T19:47:46.351Z,90.24
2022-09-25T19:50:12.901Z,90.35
2022-09-25T19:52:39.364Z,90.46
2022-09-25T19:55:06.232Z,90.57
2022-09-25T19:57:32.580Z,90.79
2022-09-25T20:00:00.335Z,90.52
2022-09-25T20:02:26.774Z,91.02
2022-09-25T20:04:53.163Z,91.09
2022-09-25T20:07:19.530Z,91.38
2022-09-25T20:09:46.077Z,91.40
2022-09-25T20:12:12.497Z,91.05
2022-09-25T20:14:38.853Z,91.68
2022-09-25T20:17:10.122Z,91.89
2022-09-25T20:19:36.801Z,92.00
2022-09-25T20:22:03.190Z,91.78
2022-09-25T20:24:29.531Z,91.80
2022-09-25T20:26:55.911Z,91.78
2022-09-25T20:29:22.296Z,91.61
2022-09-25T20:31:48.731Z,91.54
2022-09-25T20:34:17.829Z,91.30
2022-09-25T20:36:44.685Z,90.89
2022-09-25T20:39:13.546Z,90.65
2022-09-25T20:41:42.228Z,90.34
2022-09-25T20:44:08.771Z,90.27
2022-09-25T20:46:35.458Z,90.16
2022-09-25T20:49:02.894Z,90.27
2022-09-25T20:51:32.299Z,89.99
2022-09-25T20:54:01.297Z,90.07
2022-09-25T20:56:29.657Z,89.95
2022-09-25T20:58:57.072Z,90.17
2022-09-25T21:01:26.359Z,89.76
2022-09-25T21:03:53.604Z,89.39
2022-09-25T21:06:25.431Z,89.87
2022-09-25T21:08:56.530Z,89.29
2022-09-25T21:11:24.548Z,89.22
2022-09-25T21:13:53.321Z,89.23
2022-09-25T21:16:21.645Z,89.51
2022-09-25T21:18:53.956Z,90.36
2022-09-25T21:21:20.450Z,89.53
2022-09-25T21:23:53.907Z,89.84
2022-09-25T21:26:21.858Z,90.13
2022-09-25T21:28:51.522Z,90.31
2022-09-25T21:31:25.360Z,90.03
2022-09-25T21:33:53.357Z,90.07
2022-09-25T21:36:20.782Z,90.37
2022-09-25T21:38:47.509Z,90.69
2022-09-25T21:41:17.206Z,90.97
2022-09-25T21:43:44.049Z,90.68
2022-09-25T21:46:19.306Z,91.28
2022-09-25T21:48:49.681Z,90.52
2022-09-25T21:51:16.486Z,90.66
2022-09-25T21:53:43.382Z,89.57
2022-09-25T21:56:13.240Z,90.19
2022-09-25T21:58:39.974Z,90.25
2022-09-25T22:01:08.870Z,90.61
2022-09-25T22:03:37.585Z,90.89
2022-09-25T22:06:07.242Z,91.44
2022-09-25T22:08:39.338Z,91.73
2022-09-25T22:11:07.144Z,91.91
2022-09-25T22:13:36.275Z,92.46
2022-09-25T22:16:09.375Z,92.40
2022-09-25T22:18:43.298Z,93.17
2022-09-25T22:21:11.519Z,93.14
2022-09-25T22:23:37.877Z,93.60
2022-09-25T22:26:04.347Z,93.69
2022-09-25T22:28:30.974Z,94.15
2022-09-25T22:30:57.540Z,94.45
2022-09-25T22:33:24.042Z,94.46
2022-09-25T22:35:58.746Z,95.02
2022-09-25T22:38:25.095Z,94.48
2022-09-25T22:40:51.578Z,94.40
2022-09-25T22:43:18.056Z,94.31
2022-09-25T22:45:52.699Z,94.64
2022-09-25T22:48:19.549Z,93.85
2022-09-25T22:51:01.034Z,94.50
2022-09-25T22:53:32.733Z,94.09
2022-09-25T22:56:19.033Z,94.74
2022-09-25T22:58:48.825Z,93.57
2022-09-25T23:01:26.288Z,94.27
2022-09-25T23:03:57.490Z,93.71
2022-09-25T23:06:25.174Z,93.44
2022-09-25T23:08:56.669Z,93.25
2022-09-25T23:11:23.954Z,93.20
2022-09-25T23:13:56.846Z,93.07
2022-09-25T23:16:23.324Z,93.22
2022-09-25T23:18:49.718Z,92.96
2022-09-25T23:21:16.112Z,92.96
2022-09-25T23:23:42.470Z,93.21
2022-09-25T23:26:09.419Z,93.00
2022-09-25T23:28:37.905Z,93.08
2022-09-25T23:31:09.771Z,93.02
2022-09-25T23:33:36.964Z,93.00
2022-09-25T23:36:13.392Z,93.61
2022-09-25T23:38:40.021Z,92.85
2022-09-25T23:41:33.703Z,93.85
2022-09-25T23:44:01.592Z,92.48
2022-09-25T23:46:31.553Z,92.77
2022-09-25T23:48:59.026Z,92.53
2022-09-25T23:51:26.280Z,92.53
2022-09-25T23:53:56.508Z,92.39
2022-09-25T23:56:24.911Z,92.88
2022-09-25T23:58:51.968Z,92.18
